createdAt,value
2023-05-19T00:00:37.178Z,101414.28
2023-05-19T00:05:35.372Z,101405.25
2023-05-19T00:10:33.030Z,101401.84
2023-05-19T00:15:30.397Z,101402.94
2023-05-19T00:20:26.790Z,101401.50
2023-05-19T00:25:23.219Z,101397.88
2023-05-19T00:30:19.686Z,101384.84
2023-05-19T00:35:16.762Z,101387.66
2023-05-19T00:40:13.586Z,101382.06
2023-05-19T00:45:10.627Z,101380.34
2023-05-19T00:50:07.336Z,101377.06
2023-05-19T00:55:04.176Z,101375.38
2023-05-19T01:00:01.001Z,101380.66
2023-05-19T01:04:57.457Z,101384.41
2023-05-19T01:09:54.052Z,101382.84
2023-05-19T01:14:50.864Z,101383.13
2023-05-19T01:20:13.576Z,101376.25
2023-05-19T01:25:32.942Z,101382.66
2023-05-19T01:30:32.499Z,101382.09
2023-05-19T01:35:30.619Z,101384.69
2023-05-19T01:40:28.815Z,101377.34
2023-05-19T01:45:27.821Z,101380.31
2023-05-19T01:50:24.542Z,101375.19
2023-05-19T01:55:23.313Z,101366.69
2023-05-19T02:00:40.129Z,101369.41
2023-05-19T02:05:58.757Z,101369.63
2023-05-19T02:11:02.603Z,101369.41
2023-05-19T02:16:04.504Z,101368.78
2023-05-19T02:21:01.841Z,101367.47
2023-05-19T02:25:58.246Z,101361.31
2023-05-19T02:30:54.688Z,101367.59
2023-05-19T02:35:51.128Z,101366.44
2023-05-19T02:40:47.832Z,101368.16
2023-05-19T02:45:44.234Z,101358.81
2023-05-19T02:50:40.699Z,101359.91
2023-05-19T02:55:37.430Z,101353.81
2023-05-19T03:00:33.991Z,101360.50
2023-05-19T03:05:31.129Z,101358.19
2023-05-19T03:10:27.926Z,101359.31
2023-05-19T03:15:24.434Z,101357.06
2023-05-19T03:20:20.846Z,101355.31
2023-05-19T03:25:17.583Z,101355.41
2023-05-19T03:30:14.660Z,101348.50
2023-05-19T03:35:11.166Z,101351.91
2023-05-19T03:40:08.551Z,101351.06
2023-05-19T03:45:05.380Z,101355.63
2023-05-19T03:50:02.246Z,101347.84
2023-05-19T03:54:58.707Z,101359.22
2023-05-19T03:59:55.112Z,101354.41
2023-05-19T04:04:51.624Z,101359.97
2023-05-19T04:09:48.623Z,101370.97
2023-05-19T04:14:45.130Z,101377.56
2023-05-19T04:19:41.641Z,101378.16
2023-05-19T04:24:38.025Z,101376.81
2023-05-19T04:29:35.641Z,101374.34
2023-05-19T04:34:32.144Z,101374.09
2023-05-19T04:39:28.534Z,101375.44
2023-05-19T04:44:24.971Z,101372.41
2023-05-19T04:49:21.365Z,101375.09
2023-05-19T04:54:17.784Z,101372.34
2023-05-19T04:59:14.235Z,101370.13
2023-05-19T05:04:10.684Z,101362.47
2023-05-19T05:09:07.788Z,101368.09
2023-05-19T05:14:04.382Z,101364.09
2023-05-19T05:19:01.816Z,101355.47
2023-05-19T05:23:58.585Z,101362.78
2023-05-19T05:28:55.066Z,101367.47
2023-05-19T05:33:51.630Z,101359.59
2023-05-19T05:38:48.062Z,101362.53
2023-05-19T05:43:44.493Z,101363.25
2023-05-19T05:48:42.699Z,101360.00
2023-05-19T05:53:44.594Z,101374.84
2023-05-19T05:58:41.179Z,101371.22
2023-05-19T06:03:42.808Z,101368.94
2023-05-19T06:08:39.281Z,101369.47
2023-05-19T06:13:36.625Z,101371.19
2023-05-19T06:18:33.218Z,101372.84
2023-05-19T06:23:30.630Z,101366.09
2023-05-19T06:28:27.129Z,101370.75
2023-05-19T06:33:23.968Z,101361.25
2023-05-19T06:38:21.481Z,101360.59
2023-05-19T06:43:17.971Z,101351.19
2023-05-19T06:48:14.403Z,101353.28
2023-05-19T06:53:11.070Z,101345.78
2023-05-19T06:58:07.979Z,101344.13
2023-05-19T07:03:04.536Z,101349.56
2023-05-19T07:08:01.701Z,101350.06
2023-05-19T07:12:58.566Z,101348.34
2023-05-19T07:17:54.956Z,101347.53
2023-05-19T07:22:51.347Z,101350.84
2023-05-19T07:27:47.788Z,101340.41
2023-05-19T07:32:44.238Z,101338.78
2023-05-19T07:37:40.624Z,101346.50
2023-05-19T07:42:37.144Z,101333.13
2023-05-19T07:47:33.606Z,101340.03
2023-05-19T07:52:30.027Z,101334.06
2023-05-19T07:57:26.405Z,101333.28
2023-05-19T08:02:22.871Z,101338.66
2023-05-19T08:07:19.269Z,101328.16
2023-05-19T08:12:15.663Z,101327.25
2023-05-19T08:17:12.192Z,101321.13
2023-05-19T08:22:08.914Z,101325.88
2023-05-19T08:27:05.674Z,101315.13
2023-05-19T08:32:02.746Z,101319.22
2023-05-19T08:36:59.746Z,101303.44
2023-05-19T08:41:56.242Z,101308.19
2023-05-19T08:46:55.201Z,101300.75
2023-05-19T08:52:05.399Z,101289.75
2023-05-19T08:57:02.231Z,101280.00
2023-05-19T09:01:59.138Z,101283.69
2023-05-19T09:06:55.510Z,101285.31
2023-05-19T09:11:51.907Z,101275.75
2023-05-19T09:16:51.055Z,101274.06
2023-05-19T09:22:00.111Z,101244.19
2023-05-19T09:26:58.506Z,101265.94
2023-05-19T09:32:00.902Z,101264.81
2023-05-19T09:36:59.799Z,101262.19
2023-05-19T09:41:58.392Z,101262.41
2023-05-19T09:46:55.328Z,101248.91
2023-05-19T09:51:55.125Z,101243.31
2023-05-19T09:57:04.846Z,101232.84
2023-05-19T10:02:02.556Z,101242.16
2023-05-19T10:06:59.832Z,101230.25
2023-05-19T10:11:58.112Z,101225.88
2023-05-19T10:16:57.011Z,101214.91
2023-05-19T10:21:54.004Z,101218.56
2023-05-19T10:27:00.943Z,101213.06
2023-05-19T10:32:02.530Z,101201.69
2023-05-19T10:37:37.687Z,101198.78
2023-05-19T10:42:43.301Z,101196.09
2023-05-19T10:47:43.455Z,101200.59
2023-05-19T10:52:40.499Z,101195.31
2023-05-19T10:57:37.084Z,101188.66
2023-05-19T11:02:56.173Z,101195.91
2023-05-19T11:08:07.753Z,101192.78
2023-05-19T11:13:06.613Z,101185.84
2023-05-19T11:18:04.664Z,101181.63
2023-05-19T11:23:15.254Z,101175.81
2023-05-19T11:28:13.249Z,101174.91
2023-05-19T11:33:10.614Z,101182.22
2023-05-19T11:38:07.596Z,101169.28
2023-05-19T11:43:04.208Z,101177.94
2023-05-19T11:48:03.408Z,101166.69
2023-05-19T11:53:01.666Z,101180.84
2023-05-19T12:02:58.832Z,101170.97
2023-05-19T12:07:55.644Z,101167.28
2023-05-19T12:12:53.294Z,101171.06
2023-05-19T12:17:51.159Z,101173.72
2023-05-19T12:22:48.085Z,101168.78
2023-05-19T12:27:44.916Z,101158.63
2023-05-19T12:32:42.593Z,101149.16
2023-05-19T12:37:41.757Z,101155.75
2023-05-19T12:42:38.219Z,101146.94
2023-05-19T12:47:35.891Z,101138.38
2023-05-19T12:52:35.316Z,101130.53
2023-05-19T12:57:35.486Z,101134.63
2023-05-19T13:02:34.207Z,101123.09
2023-05-19T13:07:30.761Z,101131.22
2023-05-19T13:12:27.539Z,101134.41
2023-05-19T13:17:24.602Z,101121.59
2023-05-19T13:22:20.968Z,101123.91
2023-05-19T13:27:17.306Z,101121.91
2023-05-19T13:32:13.648Z,101119.72
2023-05-19T13:37:11.421Z,101115.44
2023-05-19T13:42:07.982Z,101120.06
2023-05-19T13:47:04.693Z,101127.13
2023-05-19T13:52:01.108Z,101107.38
2023-05-19T13:56:57.470Z,101091.91
2023-05-19T14:01:54.016Z,101116.56
2023-05-19T14:06:50.535Z,101106.47
2023-05-19T14:11:47.797Z,101102.59
2023-05-19T14:16:44.214Z,101092.75
2023-05-19T14:21:40.924Z,101094.84
2023-05-19T14:26:37.303Z,101091.66
2023-05-19T14:31:33.678Z,101085.22
2023-05-19T14:36:30.055Z,101086.78
2023-05-19T14:41:26.680Z,101084.53
2023-05-19T14:46:23.125Z,101092.03
2023-05-19T14:51:19.698Z,101102.44
2023-05-19T14:56:16.097Z,101096.91
2023-05-19T15:01:12.549Z,101097.41
2023-05-19T15:06:10.604Z,101100.84
2023-05-19T15:11:07.413Z,101102.88
2023-05-19T15:16:16.189Z,101077.81
2023-05-19T15:21:13.615Z,101085.22
2023-05-19T15:26:09.982Z,101075.13
2023-05-19T15:31:06.419Z,101086.75
2023-05-19T15:36:02.859Z,101092.63
2023-05-19T15:40:59.244Z,101075.41
2023-05-19T15:45:56.122Z,101067.63
2023-05-19T15:50:52.497Z,101070.41
2023-05-19T15:55:48.816Z,101074.06
2023-05-19T16:00:45.321Z,101073.84
2023-05-19T16:05:41.688Z,101069.34
2023-05-19T16:10:38.169Z,101057.28
2023-05-19T16:15:34.501Z,101059.13
2023-05-19T16:20:31.125Z,101048.84
2023-05-19T16:25:27.557Z,101034.69
2023-05-19T16:30:26.201Z,101039.41
2023-05-19T16:35:23.353Z,101043.06
2023-05-19T16:40:19.961Z,101034.34
2023-05-19T16:45:17.457Z,101039.72
2023-05-19T16:50:13.950Z,101047.00
2023-05-19T16:55:11.050Z,101044.91
2023-05-19T17:00:08.205Z,101036.94
2023-05-19T17:05:04.633Z,101027.00
2023-05-19T17:10:00.957Z,101026.88
2023-05-19T17:14:57.387Z,101026.78
2023-05-19T17:19:53.767Z,101014.81
2023-05-19T17:24:50.090Z,101019.41
2023-05-19T17:29:46.411Z,101021.84
2023-05-19T17:34:42.770Z,101015.00
2023-05-19T17:39:39.203Z,101035.06
2023-05-19T17:44:35.577Z,101042.72
2023-05-19T17:49:31.935Z,101045.13
2023-05-19T17:54:28.867Z,101054.50
2023-05-19T17:59:25.560Z,101058.03
2023-05-19T18:04:22.345Z,101059.94
2023-05-19T18:09:19.740Z,101069.88
2023-05-19T18:14:16.057Z,101060.88
2023-05-19T18:19:12.488Z,101053.31
2023-05-19T18:24:08.871Z,101060.13
2023-05-19T18:29:05.601Z,101065.09
2023-05-19T18:34:03.269Z,101069.88
2023-05-19T18:39:00.046Z,101071.94
2023-05-19T18:43:56.533Z,101068.44
2023-05-19T18:48:52.976Z,101079.28
2023-05-19T18:53:50.112Z,101085.34
2023-05-19T18:58:46.455Z,101090.97
2023-05-19T19:03:43.656Z,101107.34
2023-05-19T19:08:40.018Z,101108.78
2023-05-19T19:13:39.568Z,101104.66
2023-05-19T19:18:36.518Z,101112.88
2023-05-19T19:23:33.119Z,101122.94
2023-05-19T19:28:29.696Z,101128.78
2023-05-19T19:33:26.068Z,101129.53
2023-05-19T19:38:22.431Z,101122.72
2023-05-19T19:43:19.052Z,101130.66
2023-05-19T19:48:15.403Z,101140.25
2023-05-19T19:53:11.720Z,101139.38
2023-05-19T19:58:08.058Z,101142.31
2023-05-19T20:03:05.764Z,101147.50
2023-05-19T20:08:02.525Z,101154.25
2023-05-19T20:12:59.411Z,101150.97
2023-05-19T20:17:55.963Z,101158.31
2023-05-19T20:22:52.322Z,101157.50
2023-05-19T20:27:48.693Z,101163.69
2023-05-19T20:32:46.530Z,101163.09
2023-05-19T20:37:42.977Z,101170.50
2023-05-19T20:42:39.746Z,101158.06
2023-05-19T20:47:36.387Z,101151.00
2023-05-19T20:52:32.953Z,101153.69
2023-05-19T20:57:29.321Z,101155.84
2023-05-19T21:02:25.826Z,101156.34
2023-05-19T21:07:22.289Z,101154.00
2023-05-19T21:12:20.571Z,101159.66
2023-05-19T21:17:19.257Z,101161.53
2023-05-19T21:22:15.649Z,101162.25
2023-05-19T21:27:12.130Z,101160.59
2023-05-19T21:32:08.591Z,101164.41
2023-05-19T21:37:05.453Z,101169.78
2023-05-19T21:42:02.350Z,101168.50
2023-05-19T21:46:58.913Z,101165.31
2023-05-19T21:51:55.626Z,101170.16
2023-05-19T21:56:52.019Z,101175.06
2023-05-19T22:01:48.896Z,101164.56
2023-05-19T22:06:45.507Z,101166.78
2023-05-19T22:11:42.048Z,101163.38
2023-05-19T22:16:38.575Z,101161.50
2023-05-19T22:21:34.996Z,101167.16
2023-05-19T22:26:31.413Z,101162.91
2023-05-19T22:31:29.417Z,101164.47
2023-05-19T22:36:26.030Z,101173.22
2023-05-19T22:41:22.630Z,101175.47
2023-05-19T22:46:19.152Z,101167.25
2023-05-19T22:51:15.704Z,101174.72
2023-05-19T22:56:12.542Z,101174.06
2023-05-19T23:01:08.974Z,101169.28
2023-05-19T23:06:05.568Z,101171.09
2023-05-19T23:11:02.471Z,101173.34
2023-05-19T23:15:58.948Z,101180.47
2023-05-19T23:20:55.391Z,101181.97
2023-05-19T23:25:51.741Z,101183.22
2023-05-19T23:30:48.110Z,101173.72
2023-05-19T23:35:46.264Z,101170.66
2023-05-19T23:40:43.344Z,101165.41
2023-05-19T23:45:39.720Z,101158.50
2023-05-19T23:50:36.129Z,101158.78
2023-05-19T23:55:32.666Z,101169.34
